createdAt,value
2019-02-02T00:00:21.462Z,2.15
2019-02-02T00:02:15.149Z,2.35
2019-02-02T00:03:15.110Z,2.29
2019-02-02T00:05:08.848Z,2.22
2019-02-02T00:06:08.784Z,2.32
2019-02-02T00:08:03.179Z,2.31
2019-02-02T00:09:03.135Z,2.29
2019-02-02T00:10:56.842Z,2.28
2019-02-02T00:11:56.795Z,2.26
2019-02-02T00:13:50.641Z,2.39
2019-02-02T00:14:50.567Z,2.29
2019-02-02T00:16:44.864Z,2.36
2019-02-02T00:17:44.830Z,2.32
2019-02-02T00:19:38.543Z,2.36
2019-02-02T00:20:38.472Z,2.29
2019-02-02T00:22:32.164Z,2.36
2019-02-02T00:23:32.099Z,2.36
2019-02-02T00:25:25.823Z,2.43
2019-02-02T00:26:25.755Z,2.49
2019-02-02T00:28:19.337Z,2.47
2019-02-02T00:29:19.262Z,2.39
2019-02-02T00:31:12.999Z,2.47
2019-02-02T00:32:12.961Z,2.39
2019-02-02T00:34:06.711Z,2.50
2019-02-02T00:35:06.632Z,2.46
2019-02-02T00:37:00.213Z,2.47
2019-02-02T00:38:00.196Z,2.43
2019-02-02T00:39:53.946Z,2.57
2019-02-02T00:40:53.868Z,2.51
2019-02-02T00:42:47.594Z,2.50
2019-02-02T00:43:47.540Z,2.49
2019-02-02T00:45:41.288Z,2.53
2019-02-02T00:46:41.243Z,2.46
2019-02-02T00:48:34.958Z,2.53
2019-02-02T00:49:34.889Z,2.49
2019-02-02T00:51:28.397Z,2.50
2019-02-02T00:52:28.383Z,2.53
2019-02-02T00:54:23.154Z,2.50
2019-02-02T00:55:23.082Z,2.49
2019-02-02T00:57:16.756Z,2.53
2019-02-02T00:58:16.719Z,2.44
2019-02-02T00:59:16.790Z,2.56
2019-02-02T01:00:16.691Z,2.35
2019-02-02T01:01:16.678Z,2.38
2019-02-02T01:02:16.668Z,2.50
2019-02-02T01:03:16.650Z,2.42
2019-02-02T01:04:16.636Z,2.56
2019-02-02T01:05:16.651Z,2.49
2019-02-02T01:06:16.613Z,2.49
2019-02-02T01:07:16.601Z,2.38
2019-02-02T01:08:16.591Z,2.50
2019-02-02T01:09:16.577Z,2.47
2019-02-02T01:10:16.560Z,2.46
2019-02-02T01:11:16.550Z,2.36
2019-02-02T01:12:16.538Z,2.49
2019-02-02T01:13:16.522Z,2.51
2019-02-02T01:14:16.508Z,2.46
2019-02-02T01:15:16.492Z,2.42
2019-02-02T01:16:16.479Z,2.42
2019-02-02T01:17:16.468Z,2.39
2019-02-02T01:18:16.462Z,2.39
2019-02-02T01:19:16.444Z,2.35
2019-02-02T01:20:16.434Z,2.38
2019-02-02T01:21:16.419Z,2.38
2019-02-02T01:22:16.540Z,2.42
2019-02-02T01:23:16.392Z,2.39
2019-02-02T01:24:16.496Z,2.33
2019-02-02T01:25:16.368Z,2.33
2019-02-02T01:26:16.358Z,2.26
2019-02-02T01:27:16.349Z,2.36
2019-02-02T01:28:16.325Z,2.28
2019-02-02T01:29:16.313Z,2.29
2019-02-02T01:30:16.303Z,2.31
2019-02-02T01:31:16.294Z,2.28
2019-02-02T01:32:16.275Z,2.31
2019-02-02T01:33:16.263Z,2.26
2019-02-02T01:34:16.254Z,2.22
2019-02-02T01:35:16.237Z,2.25
2019-02-02T01:36:16.220Z,2.18
2019-02-02T01:37:16.220Z,2.26
2019-02-02T01:38:16.196Z,2.32
2019-02-02T01:39:16.195Z,2.26
2019-02-02T01:40:16.175Z,2.29
2019-02-02T01:41:16.162Z,2.29
2019-02-02T01:42:16.149Z,2.32
2019-02-02T01:43:16.136Z,2.29
2019-02-02T01:44:16.120Z,2.33
2019-02-02T01:45:16.105Z,2.32
2019-02-02T01:46:16.095Z,2.35
2019-02-02T01:47:16.083Z,2.24
2019-02-02T01:48:16.073Z,2.28
2019-02-02T01:49:16.061Z,2.29
2019-02-02T01:50:16.042Z,2.33
2019-02-02T01:51:16.030Z,2.31
2019-02-02T01:52:16.018Z,2.26
2019-02-02T01:53:16.007Z,2.28
2019-02-02T01:54:15.995Z,2.31
2019-02-02T01:55:15.980Z,2.20
2019-02-02T01:56:15.966Z,2.17
2019-02-02T01:57:15.955Z,2.18
2019-02-02T01:58:17.092Z,2.20
2019-02-02T01:59:15.928Z,2.28
2019-02-02T02:00:15.916Z,2.25
2019-02-02T02:01:15.900Z,2.26
2019-02-02T02:02:15.888Z,2.18
2019-02-02T02:03:15.876Z,2.20
2019-02-02T02:04:15.867Z,2.26
2019-02-02T02:05:15.848Z,2.24
2019-02-02T02:06:15.834Z,2.20
2019-02-02T02:07:15.830Z,2.22
2019-02-02T02:08:15.810Z,2.24
2019-02-02T02:09:15.800Z,2.24
2019-02-02T02:10:15.784Z,2.17
2019-02-02T02:11:15.779Z,2.24
2019-02-02T02:12:15.760Z,2.22
2019-02-02T02:13:15.746Z,2.17
2019-02-02T02:14:15.733Z,2.17
2019-02-02T02:15:15.724Z,2.17
2019-02-02T02:16:15.709Z,2.20
2019-02-02T02:17:15.696Z,2.22
2019-02-02T02:18:15.682Z,2.20
2019-02-02T02:19:15.668Z,2.17
2019-02-02T02:20:15.650Z,2.20
2019-02-02T02:21:15.644Z,2.17
2019-02-02T02:22:15.667Z,2.20
2019-02-02T02:23:15.617Z,2.18
2019-02-02T02:24:15.603Z,2.25
2019-02-02T02:25:15.587Z,2.15
2019-02-02T02:26:15.577Z,2.20
2019-02-02T02:27:15.563Z,2.18
2019-02-02T02:28:15.556Z,2.20
2019-02-02T02:29:15.540Z,2.18
2019-02-02T02:30:15.525Z,2.17
2019-02-02T02:31:15.511Z,2.22
2019-02-02T02:32:15.501Z,2.17
2019-02-02T02:33:15.484Z,2.18
2019-02-02T02:34:15.470Z,2.18
2019-02-02T02:35:15.461Z,2.14
2019-02-02T02:36:15.449Z,2.17
2019-02-02T02:37:15.435Z,2.18
2019-02-02T02:38:15.427Z,2.15
2019-02-02T02:39:15.410Z,2.17
2019-02-02T02:40:15.401Z,2.17
2019-02-02T02:41:15.380Z,2.17
2019-02-02T02:42:15.370Z,2.14
2019-02-02T02:43:15.359Z,2.24
2019-02-02T02:44:15.345Z,2.17
2019-02-02T02:45:15.333Z,2.18
2019-02-02T02:46:15.323Z,2.17
2019-02-02T02:47:15.301Z,2.17
2019-02-02T02:48:15.300Z,2.17
2019-02-02T02:49:15.279Z,2.22
2019-02-02T02:50:15.265Z,2.18
2019-02-02T02:51:15.256Z,2.17
2019-02-02T02:52:15.242Z,2.28
2019-02-02T02:53:15.222Z,2.25
2019-02-02T02:54:15.216Z,2.31
2019-02-02T02:55:15.410Z,2.20
2019-02-02T02:56:15.188Z,2.24
2019-02-02T02:57:15.178Z,2.22
2019-02-02T02:58:15.171Z,2.28
2019-02-02T02:59:15.149Z,2.25
2019-02-02T03:00:15.141Z,2.24
2019-02-02T03:01:15.119Z,2.25
2019-02-02T03:02:15.113Z,2.26
2019-02-02T03:03:15.099Z,2.18
2019-02-02T03:04:15.087Z,2.29
2019-02-02T03:05:15.073Z,2.29
2019-02-02T03:06:15.057Z,2.18
2019-02-02T03:07:15.046Z,2.32
2019-02-02T03:08:15.031Z,2.33
2019-02-02T03:09:15.021Z,2.33
2019-02-02T03:10:15.010Z,2.44
2019-02-02T03:11:14.994Z,2.49
2019-02-02T03:12:14.981Z,2.46
2019-02-02T03:13:14.969Z,2.47
2019-02-02T03:14:14.954Z,2.53
2019-02-02T03:15:14.957Z,2.51
2019-02-02T03:16:14.929Z,2.51
2019-02-02T03:17:14.928Z,2.49
2019-02-02T03:18:14.899Z,2.50
2019-02-02T03:19:14.911Z,2.53
2019-02-02T03:20:14.878Z,2.62
2019-02-02T03:21:14.868Z,2.64
2019-02-02T03:22:14.848Z,2.54
2019-02-02T03:23:14.841Z,2.56
2019-02-02T03:24:14.828Z,2.50
2019-02-02T03:25:14.821Z,2.53
2019-02-02T03:26:14.803Z,2.53
2019-02-02T03:27:14.787Z,2.51
2019-02-02T03:28:14.772Z,2.51
2019-02-02T03:29:14.760Z,2.47
2019-02-02T03:30:14.750Z,2.49
2019-02-02T03:31:14.742Z,2.53
2019-02-02T03:32:14.735Z,2.47
2019-02-02T03:33:14.714Z,2.54
2019-02-02T03:34:14.699Z,2.51
2019-02-02T03:35:14.687Z,2.56
2019-02-02T03:36:14.670Z,2.60
2019-02-02T03:37:14.657Z,2.54
2019-02-02T03:38:14.648Z,2.60
2019-02-02T03:39:14.637Z,2.61
2019-02-02T03:40:14.624Z,2.57
2019-02-02T03:41:14.609Z,2.60
2019-02-02T03:42:14.590Z,2.53
2019-02-02T03:43:14.582Z,2.60
2019-02-02T03:44:14.565Z,2.60
2019-02-02T03:45:14.556Z,2.53
2019-02-02T03:46:14.546Z,2.65
2019-02-02T03:47:14.532Z,2.60
2019-02-02T03:48:14.516Z,2.68
2019-02-02T03:49:14.502Z,2.64
2019-02-02T03:50:14.492Z,2.67
2019-02-02T03:51:14.477Z,2.64
2019-02-02T03:52:14.476Z,2.64
2019-02-02T03:53:14.459Z,2.68
2019-02-02T03:54:14.442Z,2.64
2019-02-02T03:55:14.427Z,2.67
2019-02-02T03:56:14.412Z,2.56
2019-02-02T03:57:14.403Z,2.68
2019-02-02T03:58:14.382Z,2.60
2019-02-02T03:59:14.377Z,2.61
2019-02-02T04:00:14.366Z,2.61
2019-02-02T04:01:14.356Z,2.65
2019-02-02T04:02:14.336Z,2.61
2019-02-02T04:03:14.331Z,2.68
2019-02-02T04:04:14.313Z,2.61
2019-02-02T04:05:14.305Z,2.68
2019-02-02T04:06:14.287Z,2.67
2019-02-02T04:07:14.275Z,2.68
2019-02-02T04:08:14.267Z,2.65
2019-02-02T04:09:14.321Z,2.67
2019-02-02T04:10:14.231Z,2.68
2019-02-02T04:11:14.225Z,2.64
2019-02-02T04:12:14.210Z,2.68
2019-02-02T04:13:14.204Z,2.60
2019-02-02T04:14:14.186Z,2.62
2019-02-02T04:15:14.172Z,2.67
2019-02-02T04:16:14.156Z,2.64
2019-02-02T04:17:14.143Z,2.67
2019-02-02T04:18:14.135Z,2.71
2019-02-02T04:19:14.126Z,2.75
2019-02-02T04:20:14.179Z,2.74
2019-02-02T04:21:14.097Z,2.68
2019-02-02T04:22:14.086Z,2.72
2019-02-02T04:23:14.068Z,2.68
2019-02-02T04:24:14.067Z,2.67
2019-02-02T04:25:14.042Z,2.64
2019-02-02T04:26:14.029Z,2.68
2019-02-02T04:27:14.023Z,2.74
2019-02-02T04:28:14.009Z,2.71
2019-02-02T04:29:17.720Z,2.74
2019-02-02T04:30:13.981Z,2.71
2019-02-02T04:31:13.963Z,2.69
2019-02-02T04:32:13.953Z,2.82
2019-02-02T04:33:13.939Z,2.80
2019-02-02T04:34:13.928Z,2.72
2019-02-02T04:35:13.921Z,2.77
2019-02-02T04:36:13.906Z,2.74
2019-02-02T04:37:13.889Z,2.77
2019-02-02T04:38:13.880Z,2.79
2019-02-02T04:39:13.863Z,2.80
2019-02-02T04:40:13.862Z,2.69
2019-02-02T04:41:13.840Z,2.83
2019-02-02T04:42:13.831Z,2.82
2019-02-02T04:43:13.821Z,2.79
2019-02-02T04:44:13.798Z,2.74
2019-02-02T04:45:13.791Z,2.83
2019-02-02T04:46:13.776Z,2.82
2019-02-02T04:47:13.765Z,2.82
2019-02-02T04:48:13.754Z,2.90
2019-02-02T04:49:13.743Z,2.85
2019-02-02T04:50:13.725Z,2.85
2019-02-02T04:51:13.713Z,2.89
2019-02-02T04:52:13.702Z,2.89
2019-02-02T04:53:13.688Z,2.93
2019-02-02T04:54:13.675Z,2.98
2019-02-02T04:55:13.665Z,2.95
2019-02-02T04:56:13.648Z,2.97
2019-02-02T04:57:13.638Z,2.95
2019-02-02T04:58:13.627Z,2.95
2019-02-02T04:59:13.617Z,2.98
2019-02-02T05:00:13.600Z,2.95
2019-02-02T05:01:13.590Z,2.93
2019-02-02T05:02:13.577Z,2.98
2019-02-02T05:03:13.562Z,2.92
2019-02-02T05:04:13.551Z,2.93
2019-02-02T05:05:13.536Z,2.93
2019-02-02T05:06:13.523Z,2.93
2019-02-02T05:07:13.512Z,3.01
2019-02-02T05:08:13.496Z,3.00
2019-02-02T05:09:13.491Z,3.01
2019-02-02T05:10:13.475Z,3.01
2019-02-02T05:11:13.462Z,3.00
2019-02-02T05:12:13.450Z,3.01
2019-02-02T05:13:13.437Z,3.00
2019-02-02T05:14:13.424Z,3.03
2019-02-02T05:15:13.405Z,2.93
2019-02-02T05:16:13.392Z,3.01
2019-02-02T05:17:13.388Z,3.04
2019-02-02T05:18:13.375Z,2.97
2019-02-02T05:19:13.360Z,2.97
2019-02-02T05:20:13.342Z,2.98
2019-02-02T05:21:13.334Z,2.98
2019-02-02T05:22:13.323Z,2.98
2019-02-02T05:23:13.307Z,2.98
2019-02-02T05:24:13.296Z,2.98
2019-02-02T05:25:13.284Z,2.97
2019-02-02T05:26:13.271Z,2.95
2019-02-02T05:27:13.257Z,3.01
2019-02-02T05:28:13.248Z,3.04
2019-02-02T05:29:13.232Z,2.95
2019-02-02T05:30:13.225Z,2.93
2019-02-02T05:31:13.211Z,2.93
2019-02-02T05:32:13.197Z,2.98
2019-02-02T05:33:13.188Z,2.93
2019-02-02T05:34:13.174Z,3.03
2019-02-02T05:35:13.161Z,2.95
2019-02-02T05:36:13.150Z,2.95
2019-02-02T05:37:13.134Z,2.97
2019-02-02T05:38:13.122Z,2.93
2019-02-02T05:39:13.117Z,3.00
2019-02-02T05:40:13.100Z,2.93
2019-02-02T05:41:13.082Z,2.98
2019-02-02T05:42:13.075Z,2.98
2019-02-02T05:43:13.058Z,2.98
2019-02-02T05:44:13.047Z,2.98
2019-02-02T05:45:13.059Z,2.97
2019-02-02T05:46:13.026Z,2.93
2019-02-02T05:47:13.015Z,2.97
2019-02-02T05:48:12.999Z,2.98
2019-02-02T05:49:12.991Z,2.97
2019-02-02T05:50:12.977Z,2.97
2019-02-02T05:51:12.962Z,2.98
2019-02-02T05:52:12.952Z,2.98
2019-02-02T05:53:12.944Z,2.92
2019-02-02T05:54:12.924Z,2.95
2019-02-02T05:55:12.925Z,2.98
2019-02-02T05:56:12.900Z,2.95
2019-02-02T05:57:12.888Z,2.93
2019-02-02T05:58:12.874Z,2.92
2019-02-02T05:59:12.866Z,2.93
2019-02-02T06:00:12.851Z,2.92
2019-02-02T06:01:12.842Z,2.98
2019-02-02T06:02:12.823Z,2.98
2019-02-02T06:03:12.813Z,2.90
2019-02-02T06:04:12.820Z,2.98
2019-02-02T06:05:12.789Z,2.95
2019-02-02T06:06:12.777Z,2.97
2019-02-02T06:07:12.768Z,2.92
2019-02-02T06:08:12.754Z,2.95
2019-02-02T06:09:12.871Z,2.98
2019-02-02T06:10:12.732Z,2.98
2019-02-02T06:11:12.717Z,2.98
2019-02-02T06:12:12.705Z,2.98
2019-02-02T06:13:12.693Z,2.98
2019-02-02T06:14:12.678Z,3.01
2019-02-02T06:15:12.664Z,3.01
2019-02-02T06:16:12.653Z,2.95
2019-02-02T06:17:12.638Z,3.01
2019-02-02T06:18:12.637Z,2.90
2019-02-02T06:19:12.621Z,2.97
2019-02-02T06:20:12.604Z,2.95
2019-02-02T06:21:12.592Z,2.90
2019-02-02T06:22:12.584Z,2.93
2019-02-02T06:23:12.567Z,3.04
2019-02-02T06:24:12.553Z,2.95
2019-02-02T06:25:12.548Z,3.01
2019-02-02T06:26:12.533Z,2.97
2019-02-02T06:27:12.522Z,2.92
2019-02-02T06:28:12.510Z,2.97
2019-02-02T06:29:12.498Z,2.93
2019-02-02T06:30:12.477Z,2.95
2019-02-02T06:31:12.472Z,2.95
2019-02-02T06:32:12.458Z,2.93
2019-02-02T06:33:12.445Z,3.01
2019-02-02T06:34:12.432Z,3.04
2019-02-02T06:35:12.424Z,3.01
2019-02-02T06:36:12.411Z,2.98
2019-02-02T06:37:12.392Z,2.95
2019-02-02T06:38:12.381Z,2.90
2019-02-02T06:39:12.374Z,3.00
2019-02-02T06:40:12.360Z,3.03
2019-02-02T06:41:12.346Z,3.01
2019-02-02T06:42:12.339Z,2.98
2019-02-02T06:43:12.325Z,2.98
2019-02-02T06:44:12.307Z,2.95
2019-02-02T06:45:12.294Z,2.93
2019-02-02T06:46:12.280Z,2.92
2019-02-02T06:47:12.278Z,2.95
2019-02-02T06:48:12.268Z,2.98
2019-02-02T06:49:12.251Z,2.95
2019-02-02T06:50:12.241Z,2.93
2019-02-02T06:51:12.220Z,3.00
2019-02-02T06:52:12.209Z,2.93
2019-02-02T06:53:12.202Z,2.87
2019-02-02T06:54:12.186Z,2.95
2019-02-02T06:55:12.172Z,3.00
2019-02-02T06:56:12.160Z,2.98
2019-02-02T06:57:12.150Z,2.97
2019-02-02T06:58:12.136Z,3.00
2019-02-02T06:59:12.128Z,2.85
2019-02-02T07:00:16.206Z,2.89
2019-02-02T07:01:12.102Z,2.89
2019-02-02T07:02:12.084Z,2.86
2019-02-02T07:03:12.077Z,2.86
2019-02-02T07:04:12.065Z,2.87
2019-02-02T07:05:12.049Z,2.83
2019-02-02T07:06:12.037Z,2.90
2019-02-02T07:07:12.025Z,2.86
2019-02-02T07:08:12.015Z,2.83
2019-02-02T07:09:12.006Z,2.89
2019-02-02T07:10:11.989Z,2.83
2019-02-02T07:11:11.978Z,2.89
2019-02-02T07:12:11.957Z,2.83
2019-02-02T07:13:11.949Z,2.86
2019-02-02T07:14:11.936Z,2.83
2019-02-02T07:15:11.923Z,2.83
2019-02-02T07:16:11.916Z,2.86
2019-02-02T07:17:11.904Z,2.74
2019-02-02T07:18:11.888Z,2.72
2019-02-02T07:19:11.877Z,2.85
2019-02-02T07:20:11.863Z,2.80
2019-02-02T07:21:11.851Z,2.79
2019-02-02T07:22:11.837Z,2.86
2019-02-02T07:23:11.832Z,2.87
2019-02-02T07:24:11.817Z,2.87
2019-02-02T07:25:11.802Z,2.85
2019-02-02T07:26:11.787Z,2.80
2019-02-02T07:27:11.776Z,2.86
2019-02-02T07:28:11.772Z,2.80
2019-02-02T07:29:11.754Z,2.87
2019-02-02T07:30:11.735Z,2.74
2019-02-02T07:31:11.729Z,2.74
2019-02-02T07:32:11.714Z,2.80
2019-02-02T07:33:11.701Z,2.79
2019-02-02T07:34:11.684Z,2.74
2019-02-02T07:35:11.674Z,2.80
2019-02-02T07:36:11.663Z,2.79
2019-02-02T07:37:11.651Z,2.74
2019-02-02T07:38:11.635Z,2.82
2019-02-02T07:39:11.626Z,2.71
2019-02-02T07:40:11.613Z,2.71
2019-02-02T07:41:11.609Z,2.79
2019-02-02T07:42:11.591Z,2.83
2019-02-02T07:43:11.577Z,2.79
2019-02-02T07:44:11.566Z,2.74
2019-02-02T07:45:11.555Z,2.74
2019-02-02T07:46:15.083Z,2.69
2019-02-02T07:47:11.529Z,2.74
2019-02-02T07:48:11.515Z,2.74
2019-02-02T07:49:11.499Z,2.77
2019-02-02T07:50:11.493Z,2.79
2019-02-02T07:51:11.475Z,2.75
2019-02-02T07:52:11.569Z,2.72
2019-02-02T07:53:11.455Z,2.85
2019-02-02T07:54:11.435Z,2.85
2019-02-02T07:55:11.426Z,2.83
2019-02-02T07:56:11.414Z,2.74
2019-02-02T07:57:11.409Z,2.77
2019-02-02T07:58:11.390Z,2.79
2019-02-02T07:59:11.377Z,2.83
2019-02-02T08:00:11.365Z,2.80
2019-02-02T08:01:11.355Z,2.79
2019-02-02T08:02:11.336Z,2.74
2019-02-02T08:03:11.328Z,2.77
2019-02-02T08:04:11.319Z,2.86
2019-02-02T08:05:11.305Z,2.87
2019-02-02T08:06:11.292Z,2.89
2019-02-02T08:07:11.283Z,2.86
2019-02-02T08:08:11.265Z,2.90
2019-02-02T08:09:11.254Z,2.82
2019-02-02T08:10:11.241Z,2.86
2019-02-02T08:11:11.234Z,2.85
2019-02-02T08:12:11.215Z,2.87
2019-02-02T08:13:11.203Z,2.89
2019-02-02T08:14:11.590Z,2.89
2019-02-02T08:15:11.179Z,2.90
2019-02-02T08:16:11.160Z,2.89
2019-02-02T08:17:11.154Z,2.83
2019-02-02T08:18:11.141Z,2.90
2019-02-02T08:19:11.129Z,2.97
2019-02-02T08:20:11.120Z,2.97
2019-02-02T08:21:11.106Z,2.93
2019-02-02T08:22:11.085Z,2.98
2019-02-02T08:23:11.094Z,2.98
2019-02-02T08:24:11.063Z,2.87
2019-02-02T08:25:11.059Z,2.95
2019-02-02T08:26:11.040Z,2.89
2019-02-02T08:27:11.031Z,2.93
2019-02-02T08:28:11.017Z,2.89
2019-02-02T08:29:11.005Z,2.87
2019-02-02T08:30:10.991Z,2.92
2019-02-02T08:31:10.981Z,2.98
2019-02-02T08:32:10.967Z,3.00
2019-02-02T08:33:10.957Z,2.95
2019-02-02T08:34:10.941Z,2.97
2019-02-02T08:35:10.931Z,2.92
2019-02-02T08:36:10.915Z,2.93
2019-02-02T08:37:10.902Z,2.95
2019-02-02T08:38:10.891Z,2.92
2019-02-02T08:39:10.882Z,3.00
2019-02-02T08:40:10.871Z,2.98
2019-02-02T08:41:10.852Z,2.97
2019-02-02T08:42:10.841Z,2.97
2019-02-02T08:43:10.832Z,2.86
2019-02-02T08:44:10.819Z,2.89
2019-02-02T08:45:10.802Z,2.89
2019-02-02T08:46:10.795Z,2.83
2019-02-02T08:47:10.781Z,2.86
2019-02-02T08:48:10.772Z,2.86
2019-02-02T08:49:10.759Z,2.89
2019-02-02T08:50:10.739Z,2.89
2019-02-02T08:51:10.729Z,2.90
2019-02-02T08:52:10.717Z,2.92
2019-02-02T08:53:10.713Z,2.87
2019-02-02T08:54:10.697Z,2.87
2019-02-02T08:55:10.680Z,2.87
2019-02-02T08:56:10.667Z,2.83
2019-02-02T08:57:10.669Z,2.87
2019-02-02T08:58:10.682Z,2.87
2019-02-02T08:59:10.700Z,2.90
2019-02-02T09:00:10.620Z,2.92
2019-02-02T09:01:10.609Z,2.92
2019-02-02T09:02:10.591Z,2.97
2019-02-02T09:03:10.584Z,2.98
2019-02-02T09:04:10.596Z,2.92
2019-02-02T09:05:10.711Z,2.93
2019-02-02T09:06:10.540Z,2.92
2019-02-02T09:07:10.530Z,2.98
2019-02-02T09:08:10.518Z,2.98
2019-02-02T09:09:10.504Z,2.98
2019-02-02T09:10:10.491Z,3.01
2019-02-02T09:11:10.481Z,3.03
2019-02-02T09:12:10.467Z,3.04
2019-02-02T09:13:10.457Z,2.92
2019-02-02T09:14:10.446Z,3.08
2019-02-02T09:15:10.435Z,3.10
2019-02-02T09:16:10.425Z,3.08
2019-02-02T09:17:10.409Z,3.04
2019-02-02T09:18:10.389Z,3.04
2019-02-02T09:19:10.385Z,3.03
2019-02-02T09:20:10.371Z,3.14
2019-02-02T09:21:10.360Z,3.05
2019-02-02T09:22:10.348Z,3.14
2019-02-02T09:23:10.336Z,3.16
2019-02-02T09:24:10.322Z,3.16
2019-02-02T09:25:10.314Z,3.13
2019-02-02T09:26:10.296Z,3.18
2019-02-02T09:27:10.284Z,3.14
2019-02-02T09:28:10.269Z,3.03
2019-02-02T09:29:10.549Z,3.18
2019-02-02T09:30:10.248Z,3.14
2019-02-02T09:31:15.781Z,3.13
2019-02-02T09:32:10.228Z,3.14
2019-02-02T09:33:10.211Z,3.08
2019-02-02T09:34:10.199Z,3.14
2019-02-02T09:35:10.187Z,3.05
2019-02-02T09:36:10.180Z,3.13
2019-02-02T09:37:10.162Z,3.14
2019-02-02T09:38:12.276Z,3.19
2019-02-02T09:39:10.131Z,3.22
2019-02-02T09:40:10.127Z,3.22
2019-02-02T09:41:10.113Z,3.19
2019-02-02T09:42:10.103Z,3.31
2019-02-02T09:43:10.087Z,3.29
2019-02-02T09:44:10.094Z,3.26
2019-02-02T09:45:10.065Z,3.29
2019-02-02T09:46:10.050Z,3.25
2019-02-02T09:47:10.033Z,3.34
2019-02-02T09:48:10.030Z,3.31
2019-02-02T09:49:10.016Z,3.31
2019-02-02T09:50:10.001Z,3.37
2019-02-02T09:51:09.991Z,3.31
2019-02-02T09:52:09.975Z,3.28
2019-02-02T09:53:09.969Z,3.40
2019-02-02T09:54:09.945Z,3.32
2019-02-02T09:55:09.942Z,3.31
2019-02-02T09:56:09.930Z,3.36
2019-02-02T09:57:09.921Z,3.32
2019-02-02T09:58:09.912Z,3.36
2019-02-02T09:59:09.943Z,3.37
2019-02-02T10:00:09.877Z,3.26
2019-02-02T10:01:09.870Z,3.29
2019-02-02T10:02:09.857Z,3.25
2019-02-02T10:03:09.844Z,3.26
2019-02-02T10:04:09.836Z,3.31
2019-02-02T10:05:09.817Z,3.26
2019-02-02T10:06:09.810Z,3.23
2019-02-02T10:07:09.893Z,3.26
2019-02-02T10:08:09.786Z,3.37
2019-02-02T10:09:09.774Z,3.36
2019-02-02T10:10:09.761Z,3.29
2019-02-02T10:11:09.778Z,3.26
2019-02-02T10:12:09.736Z,3.21
2019-02-02T10:13:09.722Z,3.19
2019-02-02T10:14:09.712Z,3.21
2019-02-02T10:15:09.703Z,3.18
2019-02-02T10:16:09.688Z,3.21
2019-02-02T10:17:09.677Z,3.22
2019-02-02T10:18:09.691Z,3.29
2019-02-02T10:19:09.648Z,3.26
2019-02-02T10:20:09.646Z,3.28
2019-02-02T10:21:09.645Z,3.14
2019-02-02T10:22:09.631Z,3.16
2019-02-02T10:23:09.603Z,3.18
2019-02-02T10:24:09.595Z,3.16
2019-02-02T10:25:09.578Z,3.19
2019-02-02T10:26:09.569Z,3.11
2019-02-02T10:27:09.564Z,3.23
2019-02-02T10:28:09.543Z,3.29
2019-02-02T10:29:09.533Z,3.22
2019-02-02T10:30:09.523Z,3.13
2019-02-02T10:31:09.507Z,3.16
2019-02-02T10:32:09.495Z,3.10
2019-02-02T10:33:09.484Z,3.16
2019-02-02T10:34:12.341Z,3.11
2019-02-02T10:35:09.463Z,3.22
2019-02-02T10:36:09.447Z,3.16
2019-02-02T10:37:09.435Z,3.13
2019-02-02T10:38:09.416Z,3.16
2019-02-02T10:39:09.409Z,3.08
2019-02-02T10:40:09.395Z,3.14
2019-02-02T10:41:09.384Z,3.14
2019-02-02T10:42:09.370Z,3.18
2019-02-02T10:43:09.362Z,3.28
2019-02-02T10:44:09.350Z,3.19
2019-02-02T10:45:09.330Z,3.14
2019-02-02T10:46:10.863Z,3.18
2019-02-02T10:47:09.306Z,3.13
2019-02-02T10:48:09.315Z,3.18
2019-02-02T10:49:09.284Z,3.14
2019-02-02T10:50:09.275Z,3.13
2019-02-02T10:51:09.259Z,3.16
2019-02-02T10:52:09.249Z,3.22
2019-02-02T10:53:09.243Z,3.25
2019-02-02T10:54:09.226Z,3.28
2019-02-02T10:55:09.213Z,3.29
2019-02-02T10:56:09.198Z,3.31
2019-02-02T10:57:09.222Z,3.29
2019-02-02T10:58:09.172Z,3.34
2019-02-02T10:59:09.172Z,3.26
2019-02-02T11:00:09.156Z,3.40
2019-02-02T11:01:09.142Z,3.41
2019-02-02T11:02:09.127Z,3.34
2019-02-02T11:03:09.117Z,3.34
2019-02-02T11:04:09.111Z,3.34
2019-02-02T11:05:09.093Z,3.44
2019-02-02T11:06:09.186Z,3.40
2019-02-02T11:07:09.088Z,3.42
2019-02-02T11:08:09.058Z,3.44
2019-02-02T11:09:09.137Z,3.44
2019-02-02T11:10:09.035Z,3.47
2019-02-02T11:11:09.086Z,3.37
2019-02-02T11:12:09.009Z,3.45
2019-02-02T11:13:09.088Z,3.34
2019-02-02T11:14:09.152Z,3.37
2019-02-02T11:15:08.995Z,3.42
2019-02-02T11:16:08.989Z,3.32
2019-02-02T11:17:08.953Z,3.42
2019-02-02T11:18:08.984Z,3.34
2019-02-02T11:19:09.022Z,3.34
2019-02-02T11:20:08.959Z,3.34
2019-02-02T11:21:09.029Z,3.22
2019-02-02T11:22:08.899Z,3.31
2019-02-02T11:23:09.022Z,3.28
2019-02-02T11:24:09.033Z,3.26
2019-02-02T11:25:08.899Z,3.25
2019-02-02T11:26:08.961Z,3.23
2019-02-02T11:27:08.962Z,3.26
2019-02-02T11:28:08.828Z,3.19
2019-02-02T11:29:08.842Z,3.29
2019-02-02T11:30:08.890Z,3.14
2019-02-02T11:31:08.779Z,3.26
2019-02-02T11:32:08.769Z,3.23
2019-02-02T11:33:08.758Z,3.23
2019-02-02T11:34:08.742Z,3.26
2019-02-02T11:35:08.731Z,3.28
2019-02-02T11:36:08.716Z,3.26
2019-02-02T11:37:08.706Z,3.26
2019-02-02T11:38:08.695Z,3.13
2019-02-02T11:39:08.683Z,3.18
2019-02-02T11:40:08.669Z,3.18
2019-02-02T11:41:08.674Z,3.14
2019-02-02T11:42:08.641Z,3.19
2019-02-02T11:43:08.627Z,3.23
2019-02-02T11:44:08.627Z,3.21
2019-02-02T11:45:08.605Z,3.21
2019-02-02T11:46:08.597Z,3.25
2019-02-02T11:47:08.586Z,3.25
2019-02-02T11:48:08.570Z,3.25
2019-02-02T11:49:08.557Z,3.19
2019-02-02T11:50:08.549Z,3.23
2019-02-02T11:51:08.540Z,3.22
2019-02-02T11:52:08.522Z,3.14
2019-02-02T11:53:08.510Z,3.25
2019-02-02T11:54:08.497Z,3.21
2019-02-02T11:55:08.483Z,3.36
2019-02-02T11:56:08.477Z,3.29
2019-02-02T11:57:08.465Z,3.34
2019-02-02T11:58:08.452Z,3.29
2019-02-02T11:59:08.440Z,3.31
2019-02-02T12:00:08.427Z,3.22
2019-02-02T12:01:08.416Z,3.31
2019-02-02T12:02:14.428Z,3.23
2019-02-02T12:03:08.385Z,3.28
2019-02-02T12:04:08.373Z,3.18
2019-02-02T12:05:08.399Z,3.23
2019-02-02T12:06:08.353Z,3.23
2019-02-02T12:07:08.340Z,3.28
2019-02-02T12:08:08.332Z,3.31
2019-02-02T12:09:08.318Z,3.22
2019-02-02T12:10:08.301Z,3.25
2019-02-02T12:11:08.292Z,3.19
2019-02-02T12:12:08.282Z,3.21
2019-02-02T12:13:08.270Z,3.28
2019-02-02T12:14:08.254Z,3.19
2019-02-02T12:15:08.241Z,3.26
2019-02-02T12:16:08.230Z,3.14
2019-02-02T12:17:08.215Z,3.25
2019-02-02T12:18:08.205Z,3.23
2019-02-02T12:19:08.193Z,3.26
2019-02-02T12:20:08.180Z,3.21
2019-02-02T12:21:08.168Z,3.25
2019-02-02T12:22:08.157Z,3.23
2019-02-02T12:23:08.139Z,3.25
2019-02-02T12:24:15.822Z,3.25
2019-02-02T12:25:08.126Z,3.28
2019-02-02T12:26:08.110Z,3.22
2019-02-02T12:27:08.097Z,3.29
2019-02-02T12:28:09.277Z,3.31
2019-02-02T12:29:08.070Z,3.19
2019-02-02T12:30:08.055Z,3.31
2019-02-02T12:31:08.045Z,3.29
2019-02-02T12:32:08.036Z,3.28
2019-02-02T12:33:08.025Z,3.31
2019-02-02T12:34:08.008Z,3.21
2019-02-02T12:35:08.000Z,3.28
2019-02-02T12:36:07.985Z,3.21
2019-02-02T12:37:07.968Z,3.18
2019-02-02T12:38:07.961Z,3.04
2019-02-02T12:39:07.953Z,3.05
2019-02-02T12:40:07.939Z,3.07
2019-02-02T12:41:07.929Z,2.97
2019-02-02T12:42:07.913Z,3.05
2019-02-02T12:43:07.903Z,2.95
2019-02-02T12:44:07.890Z,2.95
2019-02-02T12:45:07.873Z,2.98
2019-02-02T12:46:07.863Z,2.98
2019-02-02T12:47:07.849Z,2.90
2019-02-02T12:48:07.841Z,2.97
2019-02-02T12:49:07.844Z,2.95
2019-02-02T12:50:07.812Z,2.95
2019-02-02T12:51:07.801Z,2.95
2019-02-02T12:52:07.785Z,2.98
2019-02-02T12:53:07.777Z,2.85
2019-02-02T12:54:07.765Z,2.92
2019-02-02T12:55:07.752Z,2.97
2019-02-02T12:56:07.740Z,2.98
2019-02-02T12:57:07.723Z,2.87
2019-02-02T12:58:07.712Z,2.89
2019-02-02T12:59:07.705Z,2.86
2019-02-02T13:00:07.690Z,2.87
2019-02-02T13:01:07.681Z,2.89
2019-02-02T13:02:07.660Z,2.79
2019-02-02T13:03:07.652Z,2.86
2019-02-02T13:04:07.640Z,2.87
2019-02-02T13:05:07.626Z,2.82
2019-02-02T13:06:07.708Z,2.87
2019-02-02T13:07:07.599Z,2.83
2019-02-02T13:08:07.599Z,2.93
2019-02-02T13:09:07.578Z,2.90
2019-02-02T13:10:07.563Z,2.93
2019-02-02T13:11:07.549Z,2.87
2019-02-02T13:12:07.538Z,2.89
2019-02-02T13:13:07.527Z,2.93
2019-02-02T13:14:07.512Z,2.97
2019-02-02T13:15:07.498Z,2.98
2019-02-02T13:16:07.487Z,2.98
2019-02-02T13:17:07.478Z,2.95
2019-02-02T13:18:07.466Z,2.92
2019-02-02T13:19:07.451Z,2.90
2019-02-02T13:20:07.442Z,2.93
2019-02-02T13:21:07.427Z,2.93
2019-02-02T13:22:07.413Z,2.93
2019-02-02T13:23:07.400Z,2.97
2019-02-02T13:24:07.386Z,2.86
2019-02-02T13:25:07.378Z,2.97
2019-02-02T13:26:07.367Z,2.97
2019-02-02T13:27:07.355Z,2.87
2019-02-02T13:28:07.340Z,2.95
2019-02-02T13:29:07.327Z,2.93
2019-02-02T13:30:07.317Z,3.03
2019-02-02T13:31:07.306Z,2.93
2019-02-02T13:32:07.285Z,3.01
2019-02-02T13:33:07.279Z,2.93
2019-02-02T13:34:07.280Z,3.00
2019-02-02T13:35:07.255Z,2.97
2019-02-02T13:36:07.242Z,2.92